createdAt,value
2019-05-19T00:00:53.552Z,13.55
2019-05-19T00:01:50.449Z,13.52
2019-05-19T00:02:47.490Z,13.52
2019-05-19T00:03:44.615Z,13.51
2019-05-19T00:04:41.485Z,13.50
2019-05-19T00:05:38.496Z,13.50
2019-05-19T00:06:35.533Z,13.50
2019-05-19T00:07:32.586Z,13.50
2019-05-19T00:08:29.506Z,13.50
2019-05-19T00:09:26.559Z,13.48
2019-05-19T00:10:23.584Z,13.47
2019-05-19T00:11:20.524Z,13.46
2019-05-19T00:12:17.559Z,13.43
2019-05-19T00:13:14.591Z,13.42
2019-05-19T00:14:11.652Z,13.42
2019-05-19T00:15:08.568Z,13.39
2019-05-19T00:16:05.607Z,13.39
2019-05-19T00:17:02.639Z,13.42
2019-05-19T00:17:59.676Z,13.40
2019-05-19T00:18:56.629Z,13.39
2019-05-19T00:19:53.665Z,13.39
2019-05-19T00:20:50.686Z,13.35
2019-05-19T00:21:47.632Z,13.32
2019-05-19T00:22:44.659Z,13.28
2019-05-19T00:23:41.697Z,13.27
2019-05-19T00:24:38.749Z,13.23
2019-05-19T00:25:35.670Z,13.21
2019-05-19T00:26:32.743Z,13.18
2019-05-19T00:27:29.754Z,13.17
2019-05-19T00:28:26.822Z,13.15
2019-05-19T00:29:23.738Z,13.14
2019-05-19T00:30:20.756Z,13.14
2019-05-19T00:31:17.792Z,13.15
2019-05-19T00:32:14.734Z,13.17
2019-05-19T00:33:11.779Z,13.15
2019-05-19T00:34:08.804Z,13.14
2019-05-19T00:35:05.983Z,13.13
2019-05-19T00:36:02.783Z,13.10
2019-05-19T00:36:59.861Z,13.06
2019-05-19T00:37:56.874Z,13.05
2019-05-19T00:38:53.902Z,13.02
2019-05-19T00:39:50.837Z,13.00
2019-05-19T00:40:47.862Z,12.97
2019-05-19T00:41:44.898Z,12.94
2019-05-19T00:42:41.937Z,12.93
2019-05-19T00:43:38.870Z,12.89
2019-05-19T00:44:35.927Z,12.88
2019-05-19T00:45:32.966Z,12.86
2019-05-19T00:46:29.888Z,12.85
2019-05-19T00:47:26.957Z,12.82
2019-05-19T00:48:23.958Z,12.81
2019-05-19T00:49:20.993Z,12.82
2019-05-19T00:50:17.929Z,12.85
2019-05-19T00:51:15.105Z,12.84
2019-05-19T00:52:12.015Z,12.84
2019-05-19T00:53:09.040Z,12.82
2019-05-19T00:54:05.999Z,12.81
2019-05-19T00:55:03.029Z,12.81
2019-05-19T00:56:00.050Z,12.81
2019-05-19T00:56:56.993Z,12.79
2019-05-19T00:57:54.027Z,12.77
2019-05-19T00:58:51.062Z,12.76
2019-05-19T00:59:48.113Z,12.75
2019-05-19T01:00:45.086Z,12.73
2019-05-19T01:01:42.070Z,12.72
2019-05-19T01:02:39.176Z,12.72
2019-05-19T01:03:36.148Z,12.72
2019-05-19T01:04:33.094Z,12.73
2019-05-19T01:05:30.207Z,12.76
2019-05-19T01:06:27.155Z,12.77
2019-05-19T01:07:24.097Z,12.81
2019-05-19T01:08:21.136Z,12.85
2019-05-19T01:09:18.167Z,12.86
2019-05-19T01:10:15.230Z,12.89
2019-05-19T01:11:12.137Z,12.89
2019-05-19T01:12:09.182Z,12.93
2019-05-19T01:13:06.213Z,12.96
2019-05-19T01:14:04.070Z,12.96
2019-05-19T01:15:00.186Z,12.96
2019-05-19T01:15:57.247Z,12.94
2019-05-19T01:16:54.260Z,12.94
2019-05-19T01:17:51.203Z,12.93
2019-05-19T01:18:48.258Z,12.92
2019-05-19T01:19:55.552Z,12.89
2019-05-19T01:20:42.410Z,12.86
2019-05-19T01:21:39.244Z,12.85
2019-05-19T01:22:36.321Z,12.85
2019-05-19T01:23:33.329Z,12.82
2019-05-19T01:24:30.269Z,12.81
2019-05-19T01:25:27.329Z,12.80
2019-05-19T01:26:24.343Z,12.77
2019-05-19T01:27:21.366Z,12.75
2019-05-19T01:28:18.313Z,12.72
2019-05-19T01:29:15.376Z,12.72
2019-05-19T01:30:12.392Z,12.68
2019-05-19T01:31:09.429Z,12.67
2019-05-19T01:32:06.352Z,12.65
2019-05-19T01:33:03.388Z,12.68
2019-05-19T01:34:00.447Z,12.71
2019-05-19T01:34:57.463Z,12.69
2019-05-19T01:35:54.422Z,12.68
2019-05-19T01:36:51.440Z,12.67
2019-05-19T01:37:48.472Z,12.65
2019-05-19T01:38:45.417Z,12.64
2019-05-19T01:39:42.446Z,12.63
2019-05-19T01:40:39.584Z,12.61
2019-05-19T01:41:36.546Z,12.60
2019-05-19T01:42:33.462Z,12.57
2019-05-19T01:43:30.498Z,12.60
2019-05-19T01:44:27.568Z,12.60
2019-05-19T01:45:24.592Z,12.60
2019-05-19T01:46:21.516Z,12.59
2019-05-19T01:47:18.539Z,12.57
2019-05-19T01:48:15.576Z,12.56
2019-05-19T01:49:12.520Z,12.56
2019-05-19T01:50:17.449Z,12.52
2019-05-19T01:51:06.602Z,12.51
2019-05-19T01:52:03.625Z,12.47
2019-05-19T01:53:00.560Z,12.46
2019-05-19T01:53:57.613Z,12.43
2019-05-19T01:54:54.648Z,12.42
2019-05-19T01:55:51.591Z,12.39
2019-05-19T01:56:48.621Z,12.39
2019-05-19T01:57:45.685Z,12.35
2019-05-19T01:58:42.614Z,12.35
2019-05-19T01:59:39.729Z,12.35
2019-05-19T02:00:36.669Z,12.31
2019-05-19T02:01:33.705Z,12.32
2019-05-19T02:02:30.734Z,12.31
2019-05-19T02:03:27.666Z,12.31
2019-05-19T02:04:24.712Z,12.30
2019-05-19T02:05:21.761Z,12.30
2019-05-19T02:06:18.866Z,12.28
2019-05-19T02:07:15.712Z,12.27
2019-05-19T02:08:12.758Z,12.25
2019-05-19T02:09:09.786Z,12.23
2019-05-19T02:10:06.745Z,12.21
2019-05-19T02:11:03.797Z,12.18
2019-05-19T02:12:00.819Z,12.15
2019-05-19T02:12:57.837Z,12.13
2019-05-19T02:13:54.777Z,12.11
2019-05-19T02:14:51.831Z,12.11
2019-05-19T02:15:48.845Z,12.14
2019-05-19T02:16:45.897Z,12.13
2019-05-19T02:17:42.857Z,12.11
2019-05-19T02:18:39.854Z,12.10
2019-05-19T02:19:36.892Z,12.10
2019-05-19T02:20:34.171Z,12.07
2019-05-19T02:21:30.880Z,12.06
2019-05-19T02:22:27.906Z,12.06
2019-05-19T02:23:24.940Z,12.06
2019-05-19T02:24:21.882Z,12.07
2019-05-19T02:25:18.915Z,12.09
2019-05-19T02:26:15.977Z,12.09
2019-05-19T02:27:13.009Z,12.07
2019-05-19T02:28:09.924Z,12.07
2019-05-19T02:29:06.958Z,12.06
2019-05-19T02:30:03.998Z,12.06
2019-05-19T02:31:00.954Z,12.09
2019-05-19T02:31:58.004Z,12.09
2019-05-19T02:32:55.048Z,12.09
2019-05-19T02:33:52.045Z,12.10
2019-05-19T02:34:48.989Z,12.14
2019-05-19T02:35:46.110Z,12.13
2019-05-19T02:36:43.071Z,12.15
2019-05-19T02:37:40.098Z,12.17
2019-05-19T02:38:37.030Z,12.21
2019-05-19T02:39:34.077Z,12.22
2019-05-19T02:40:31.116Z,12.23
2019-05-19T02:41:28.140Z,12.22
2019-05-19T02:42:25.099Z,12.22
2019-05-19T02:43:22.114Z,12.23
2019-05-19T02:44:19.152Z,12.22
2019-05-19T02:45:16.099Z,12.21
2019-05-19T02:46:13.134Z,12.19
2019-05-19T02:47:10.286Z,12.18
2019-05-19T02:48:07.198Z,12.18
2019-05-19T02:49:04.138Z,12.18
2019-05-19T02:50:01.171Z,12.21
2019-05-19T02:50:58.211Z,12.21
2019-05-19T02:51:55.251Z,12.23
2019-05-19T02:52:52.205Z,12.23
2019-05-19T02:53:49.220Z,12.25
2019-05-19T02:54:46.305Z,12.22
2019-05-19T02:55:43.294Z,12.22
2019-05-19T02:56:40.244Z,12.18
2019-05-19T02:57:37.289Z,12.14
2019-05-19T02:58:34.308Z,12.10
2019-05-19T02:59:31.333Z,12.09
2019-05-19T03:00:28.341Z,12.06
2019-05-19T03:01:25.334Z,12.02
2019-05-19T03:02:22.450Z,12.01
2019-05-19T03:03:19.327Z,12.00
2019-05-19T03:04:16.325Z,11.98
2019-05-19T03:05:13.376Z,11.97
2019-05-19T03:06:10.433Z,11.96
2019-05-19T03:07:07.335Z,11.93
2019-05-19T03:08:04.400Z,11.93
2019-05-19T03:09:01.413Z,11.93
2019-05-19T03:09:58.353Z,11.93
2019-05-19T03:10:55.395Z,11.90
2019-05-19T03:11:52.466Z,11.89
2019-05-19T03:12:49.568Z,11.88
2019-05-19T03:13:46.430Z,11.86
2019-05-19T03:14:43.468Z,11.85
2019-05-19T03:15:40.483Z,11.85
2019-05-19T03:16:37.509Z,11.85
2019-05-19T03:17:34.458Z,11.84
2019-05-19T03:18:31.485Z,11.81
2019-05-19T03:19:28.514Z,11.81
2019-05-19T03:20:25.457Z,11.80
2019-05-19T03:21:22.501Z,11.77
2019-05-19T03:22:19.523Z,11.77
2019-05-19T03:23:16.574Z,11.75
2019-05-19T03:24:13.499Z,11.72
2019-05-19T03:25:10.537Z,11.71
2019-05-19T03:26:07.570Z,11.71
2019-05-19T03:27:04.625Z,11.69
2019-05-19T03:28:01.634Z,11.68
2019-05-19T03:28:58.588Z,11.67
2019-05-19T03:29:55.619Z,11.64
2019-05-19T03:30:52.576Z,11.64
2019-05-19T03:31:49.591Z,11.63
2019-05-19T03:32:46.726Z,11.64
2019-05-19T03:33:43.668Z,11.64
2019-05-19T03:34:40.612Z,11.64
2019-05-19T03:35:37.642Z,11.63
2019-05-19T03:36:34.690Z,11.64
2019-05-19T03:37:31.739Z,11.64
2019-05-19T03:38:28.674Z,11.65
2019-05-19T03:39:25.687Z,11.67
2019-05-19T03:40:22.768Z,11.65
2019-05-19T03:41:19.760Z,11.68
2019-05-19T03:42:16.711Z,11.72
2019-05-19T03:43:13.781Z,11.76
2019-05-19T03:44:10.772Z,11.81
2019-05-19T03:45:07.713Z,11.85
2019-05-19T03:46:04.750Z,11.86
2019-05-19T03:47:01.870Z,11.88
2019-05-19T03:47:58.834Z,11.89
2019-05-19T03:48:55.753Z,11.89
2019-05-19T03:49:52.792Z,11.89
2019-05-19T03:50:49.874Z,11.90
2019-05-19T03:51:46.787Z,11.90
2019-05-19T03:52:43.802Z,11.90
2019-05-19T03:53:40.853Z,11.90
2019-05-19T03:54:37.877Z,11.90
2019-05-19T03:55:34.819Z,11.92
2019-05-19T03:56:31.881Z,11.92
2019-05-19T03:57:28.889Z,11.93
2019-05-19T03:58:25.942Z,11.93
2019-05-19T03:59:22.902Z,11.96
2019-05-19T04:00:19.899Z,11.97
2019-05-19T04:01:16.947Z,11.97
2019-05-19T04:02:13.978Z,12.00
2019-05-19T04:03:10.934Z,12.03
2019-05-19T04:04:07.947Z,12.09
2019-05-19T04:05:05.023Z,12.14
2019-05-19T04:06:02.019Z,12.18
2019-05-19T04:06:59.007Z,12.25
2019-05-19T04:07:56.034Z,12.27
2019-05-19T04:08:53.396Z,12.28
2019-05-19T04:09:49.979Z,12.31
2019-05-19T04:10:47.043Z,12.31
2019-05-19T04:11:44.040Z,12.31
2019-05-19T04:12:41.077Z,12.31
2019-05-19T04:13:38.039Z,12.31
2019-05-19T04:14:35.051Z,12.31
2019-05-19T04:15:32.088Z,12.34
2019-05-19T04:16:29.029Z,12.35
2019-05-19T04:17:26.075Z,12.36
2019-05-19T04:18:23.096Z,12.38
2019-05-19T04:19:20.227Z,12.36
2019-05-19T04:20:17.077Z,12.39
2019-05-19T04:21:14.112Z,12.39
2019-05-19T04:22:11.158Z,12.40
2019-05-19T04:23:08.182Z,12.42
2019-05-19T04:24:05.140Z,12.43
2019-05-19T04:25:02.207Z,12.43
2019-05-19T04:25:59.234Z,12.46
2019-05-19T04:26:56.231Z,12.47
2019-05-19T04:27:53.180Z,12.47
2019-05-19T04:28:50.295Z,12.48
2019-05-19T04:29:47.160Z,12.52
2019-05-19T04:30:44.223Z,12.52
2019-05-19T04:31:41.214Z,12.53
2019-05-19T04:32:38.263Z,12.52
2019-05-19T04:33:35.396Z,12.56
2019-05-19T04:34:32.237Z,12.55
2019-05-19T04:35:29.260Z,12.55
2019-05-19T04:36:26.296Z,12.56
2019-05-19T04:37:23.337Z,12.56
2019-05-19T04:38:20.247Z,12.59
2019-05-19T04:39:17.370Z,12.60
2019-05-19T04:40:14.346Z,12.60
2019-05-19T04:41:11.281Z,12.60
2019-05-19T04:42:08.319Z,12.60
2019-05-19T04:43:05.369Z,12.64
2019-05-19T04:44:02.403Z,12.65
2019-05-19T04:44:59.344Z,12.68
2019-05-19T04:45:56.368Z,12.68
2019-05-19T04:46:53.407Z,12.65
2019-05-19T04:47:50.440Z,12.64
2019-05-19T04:48:47.377Z,12.64
2019-05-19T04:49:44.428Z,12.67
2019-05-19T04:50:41.450Z,12.65
2019-05-19T04:51:38.387Z,12.68
2019-05-19T04:52:35.530Z,12.69
2019-05-19T04:53:32.553Z,12.72
2019-05-19T04:54:29.522Z,12.72
2019-05-19T04:55:26.440Z,12.73
2019-05-19T04:56:23.469Z,12.73
2019-05-19T04:57:20.510Z,12.75
2019-05-19T04:58:17.545Z,12.77
2019-05-19T04:59:14.496Z,12.79
2019-05-19T05:00:11.532Z,12.81
2019-05-19T05:01:08.555Z,12.81
2019-05-19T05:02:05.498Z,12.84
2019-05-19T05:03:02.538Z,12.88
2019-05-19T05:03:59.566Z,12.90
2019-05-19T05:04:56.693Z,12.93
2019-05-19T05:05:53.537Z,12.94
2019-05-19T05:06:50.541Z,12.97
2019-05-19T05:07:47.614Z,13.00
2019-05-19T05:08:44.650Z,13.02
2019-05-19T05:09:41.585Z,13.03
2019-05-19T05:10:38.637Z,13.06
2019-05-19T05:11:35.660Z,13.07
2019-05-19T05:12:32.601Z,13.10
2019-05-19T05:13:29.633Z,13.11
2019-05-19T05:14:26.761Z,13.14
2019-05-19T05:15:23.724Z,13.17
2019-05-19T05:16:20.643Z,13.19
2019-05-19T05:17:17.681Z,13.22
2019-05-19T05:18:14.781Z,13.25
2019-05-19T05:19:11.758Z,13.27
2019-05-19T05:20:08.718Z,13.27
2019-05-19T05:21:05.778Z,13.31
2019-05-19T05:22:02.809Z,13.34
2019-05-19T05:22:59.708Z,13.35
2019-05-19T05:23:56.753Z,13.39
2019-05-19T05:24:53.817Z,13.46
2019-05-19T05:25:50.829Z,13.51
2019-05-19T05:26:47.754Z,13.51
2019-05-19T05:27:44.786Z,13.52
2019-05-19T05:28:41.824Z,13.56
2019-05-19T05:29:38.861Z,13.63
2019-05-19T05:30:35.888Z,13.68
2019-05-19T05:31:32.874Z,13.76
2019-05-19T05:32:29.873Z,13.77
2019-05-19T05:33:26.817Z,13.81
2019-05-19T05:34:23.858Z,13.82
2019-05-19T05:35:20.880Z,13.89
2019-05-19T05:36:17.933Z,13.92
2019-05-19T05:37:14.854Z,13.94
2019-05-19T05:38:11.937Z,14.02
2019-05-19T05:39:08.927Z,14.03
2019-05-19T05:40:05.967Z,14.06
2019-05-19T05:41:02.915Z,14.09
2019-05-19T05:41:59.981Z,14.09
2019-05-19T05:42:56.976Z,14.11
2019-05-19T05:43:53.956Z,14.15
2019-05-19T05:44:51.054Z,14.21
2019-05-19T05:45:48.002Z,14.27
2019-05-19T05:46:45.025Z,14.31
2019-05-19T05:47:41.959Z,14.31
2019-05-19T05:48:38.996Z,14.38
2019-05-19T05:49:36.035Z,14.46
2019-05-19T05:50:32.991Z,14.56
2019-05-19T05:51:30.101Z,14.64
2019-05-19T05:52:37.966Z,14.73
2019-05-19T05:53:24.081Z,14.81
2019-05-19T05:54:21.030Z,14.90
2019-05-19T05:55:18.054Z,15.00
2019-05-19T05:56:15.106Z,15.07
2019-05-19T05:57:12.129Z,15.18
2019-05-19T05:58:09.107Z,15.26
2019-05-19T05:59:06.143Z,15.31
2019-05-19T06:00:03.231Z,15.39
2019-05-19T06:01:00.177Z,15.43
2019-05-19T06:01:57.126Z,15.46
2019-05-19T06:02:54.150Z,15.47
2019-05-19T06:03:51.187Z,15.52
2019-05-19T06:04:48.138Z,15.52
2019-05-19T06:05:45.175Z,15.52
2019-05-19T06:06:45.576Z,15.56
2019-05-19T06:07:39.279Z,15.56
2019-05-19T06:08:36.176Z,15.56
2019-05-19T06:09:33.301Z,15.63
2019-05-19T06:10:30.180Z,15.71
2019-05-19T06:11:27.207Z,15.79
2019-05-19T06:12:24.218Z,15.85
2019-05-19T06:13:21.256Z,15.89
2019-05-19T06:14:18.343Z,16.02
2019-05-19T06:15:15.237Z,16.14
2019-05-19T06:16:12.280Z,16.27
2019-05-19T06:17:09.247Z,16.37
2019-05-19T06:18:06.342Z,16.43
2019-05-19T06:19:03.279Z,16.50
2019-05-19T06:20:00.321Z,16.60
2019-05-19T06:20:57.395Z,16.61
2019-05-19T06:21:54.301Z,16.56
2019-05-19T06:22:56.321Z,16.53
2019-05-19T06:23:48.360Z,16.56
2019-05-19T06:24:45.397Z,16.59
2019-05-19T06:25:42.429Z,16.64
2019-05-19T06:26:39.394Z,16.69
2019-05-19T06:27:36.411Z,16.70
2019-05-19T06:28:33.448Z,16.79
2019-05-19T06:29:30.382Z,16.89
2019-05-19T06:30:27.443Z,17.00
2019-05-19T06:31:24.455Z,17.04
2019-05-19T06:32:21.413Z,17.07
2019-05-19T06:33:18.447Z,17.12
2019-05-19T06:34:15.473Z,17.13
2019-05-19T06:35:12.532Z,17.20
2019-05-19T06:36:09.444Z,17.27
2019-05-19T06:37:06.500Z,17.31
2019-05-19T06:38:03.617Z,17.36
2019-05-19T06:39:00.558Z,17.39
2019-05-19T06:39:57.589Z,17.45
2019-05-19T06:40:54.538Z,17.52
2019-05-19T06:41:51.576Z,17.61
2019-05-19T06:42:48.706Z,17.62
2019-05-19T06:43:45.545Z,17.62
2019-05-19T06:44:42.607Z,17.62
2019-05-19T06:45:39.622Z,17.73
2019-05-19T06:46:36.548Z,17.81
2019-05-19T06:47:33.673Z,17.87
2019-05-19T06:48:30.715Z,17.90
2019-05-19T06:49:27.705Z,18.01
2019-05-19T06:50:24.589Z,18.04
2019-05-19T06:51:21.672Z,18.11
2019-05-19T06:52:18.682Z,18.20
2019-05-19T06:53:15.703Z,18.29
2019-05-19T06:54:12.683Z,18.40
2019-05-19T06:55:09.718Z,18.46
2019-05-19T06:56:06.756Z,18.56
2019-05-19T06:57:03.742Z,18.70
2019-05-19T06:58:00.822Z,18.82
2019-05-19T06:58:57.731Z,18.85
2019-05-19T06:59:54.799Z,18.79
2019-05-19T07:00:51.702Z,18.85
2019-05-19T07:01:48.825Z,18.95
2019-05-19T07:02:45.792Z,19.06
2019-05-19T07:03:42.853Z,19.10
2019-05-19T07:04:39.852Z,19.17
2019-05-19T07:05:36.787Z,19.20
2019-05-19T07:06:34.359Z,19.31
2019-05-19T07:07:30.784Z,19.47
2019-05-19T07:08:27.837Z,19.79
2019-05-19T07:09:24.917Z,20.23
2019-05-19T07:10:21.871Z,20.57
2019-05-19T07:11:18.880Z,20.57
2019-05-19T07:12:15.979Z,20.54
2019-05-19T07:13:12.972Z,20.62
2019-05-19T07:14:09.987Z,20.67
2019-05-19T07:15:06.898Z,20.54
2019-05-19T07:16:03.925Z,20.42
2019-05-19T07:17:01.016Z,20.29
2019-05-19T07:17:57.961Z,20.12
2019-05-19T07:18:54.942Z,20.04
2019-05-19T07:19:51.944Z,20.04
2019-05-19T07:20:49.008Z,20.02
2019-05-19T07:21:45.909Z,20.18
2019-05-19T07:22:43.114Z,20.46
2019-05-19T07:23:40.077Z,20.71
2019-05-19T07:24:37.062Z,20.85
2019-05-19T07:25:33.992Z,20.84
2019-05-19T07:26:30.999Z,20.80
2019-05-19T07:27:28.045Z,20.78
2019-05-19T07:28:25.065Z,20.62
2019-05-19T07:29:22.089Z,20.63
2019-05-19T07:30:19.147Z,20.61
2019-05-19T07:31:16.085Z,20.57
2019-05-19T07:32:13.027Z,20.61
2019-05-19T07:33:10.163Z,20.62
2019-05-19T07:34:07.188Z,20.67
2019-05-19T07:35:04.178Z,20.79
2019-05-19T07:36:01.195Z,20.79
2019-05-19T07:36:58.118Z,20.84
2019-05-19T07:37:55.261Z,20.86
2019-05-19T07:38:52.099Z,20.95
2019-05-19T07:39:49.118Z,20.97
2019-05-19T07:40:46.188Z,20.86
2019-05-19T07:41:43.206Z,20.63
2019-05-19T07:42:40.124Z,20.51
2019-05-19T07:43:37.178Z,20.48
2019-05-19T07:44:34.229Z,20.44
2019-05-19T07:45:31.267Z,20.45
2019-05-19T07:46:28.171Z,20.54
2019-05-19T07:47:25.292Z,20.45
2019-05-19T07:48:22.283Z,20.38
2019-05-19T07:49:19.221Z,20.36
2019-05-19T07:50:16.218Z,20.25
2019-05-19T07:51:13.355Z,20.19
2019-05-19T07:52:10.389Z,20.18
2019-05-19T07:53:07.266Z,20.20
2019-05-19T07:54:04.369Z,20.20
2019-05-19T07:55:01.304Z,20.21
2019-05-19T07:55:58.448Z,20.23
2019-05-19T07:56:55.279Z,20.13
2019-05-19T07:57:52.404Z,20.12
2019-05-19T07:58:49.355Z,20.17
2019-05-19T07:59:46.309Z,20.15
2019-05-19T08:00:43.363Z,20.13
2019-05-19T08:01:40.361Z,20.04
2019-05-19T08:02:37.725Z,19.96
2019-05-19T08:03:34.367Z,19.93
2019-05-19T08:04:31.488Z,19.81
2019-05-19T08:05:28.507Z,19.70
2019-05-19T08:06:25.455Z,19.62
2019-05-19T08:07:22.422Z,19.55
2019-05-19T08:08:19.435Z,19.53
2019-05-19T08:09:16.489Z,19.52
2019-05-19T08:10:13.391Z,19.53
2019-05-19T08:11:10.485Z,19.54
2019-05-19T08:12:07.551Z,19.62
2019-05-19T08:13:04.647Z,19.68
2019-05-19T08:14:01.526Z,19.77
2019-05-19T08:14:58.572Z,20.01
2019-05-19T08:15:55.558Z,20.21
2019-05-19T08:16:52.586Z,20.46
2019-05-19T08:17:49.523Z,20.65
2019-05-19T08:18:46.611Z,20.80
2019-05-19T08:19:43.666Z,20.95
2019-05-19T08:20:40.635Z,21.02
2019-05-19T08:21:37.632Z,21.04
2019-05-19T08:22:34.605Z,20.93
2019-05-19T08:23:31.652Z,20.96
2019-05-19T08:24:28.544Z,21.13
2019-05-19T08:25:25.597Z,21.36
2019-05-19T08:26:22.719Z,21.53
2019-05-19T08:27:19.673Z,21.63
2019-05-19T08:28:16.631Z,21.72
2019-05-19T08:29:13.715Z,21.88
2019-05-19T08:30:10.753Z,22.13
2019-05-19T08:31:07.791Z,22.51
2019-05-19T08:32:04.743Z,22.68
2019-05-19T08:33:01.723Z,22.72
2019-05-19T08:33:58.822Z,22.70
2019-05-19T08:34:55.648Z,22.62
2019-05-19T08:35:52.697Z,22.54
2019-05-19T08:36:49.724Z,22.28
2019-05-19T08:37:46.798Z,22.13
2019-05-19T08:38:43.782Z,22.03
2019-05-19T08:39:40.739Z,22.01
2019-05-19T08:40:37.787Z,21.98
2019-05-19T08:41:34.850Z,22.01
2019-05-19T08:42:31.749Z,22.05
2019-05-19T08:43:28.804Z,22.18
2019-05-19T08:44:25.915Z,22.22
2019-05-19T08:45:22.849Z,22.31
2019-05-19T08:46:19.827Z,22.40
2019-05-19T08:47:16.872Z,22.52
2019-05-19T08:48:13.870Z,22.47
2019-05-19T08:49:10.799Z,22.45
2019-05-19T08:50:07.934Z,22.43
2019-05-19T08:51:04.975Z,22.37
2019-05-19T08:52:02.061Z,22.38
2019-05-19T08:52:59.016Z,22.45
2019-05-19T08:53:56.365Z,22.53
2019-05-19T08:54:52.987Z,22.64
2019-05-19T08:55:50.263Z,22.80
2019-05-19T08:56:47.038Z,22.95
2019-05-19T08:57:43.927Z,23.17
2019-05-19T08:58:41.331Z,23.32
2019-05-19T08:59:37.946Z,23.27
2019-05-19T09:00:38.387Z,23.57
2019-05-19T09:01:32.298Z,23.82
2019-05-19T09:02:29.179Z,24.01
2019-05-19T09:03:30.969Z,24.22
2019-05-19T09:04:23.317Z,24.51
2019-05-19T09:05:20.124Z,24.79
2019-05-19T09:06:17.192Z,25.01
2019-05-19T09:07:14.038Z,24.62
2019-05-19T09:08:11.081Z,24.64
2019-05-19T09:09:08.116Z,24.93
2019-05-19T09:10:05.159Z,24.97
2019-05-19T09:11:02.380Z,24.80
2019-05-19T09:11:59.128Z,24.45
2019-05-19T09:12:56.174Z,24.35
2019-05-19T09:13:53.197Z,24.44
2019-05-19T09:14:50.103Z,24.52
2019-05-19T09:15:47.150Z,24.48
2019-05-19T09:16:44.261Z,24.84
2019-05-19T09:17:41.151Z,25.17
2019-05-19T09:18:38.256Z,25.45
2019-05-19T09:19:35.289Z,26.04
2019-05-19T09:20:32.318Z,26.70
2019-05-19T09:21:29.261Z,27.22
2019-05-19T09:22:26.192Z,27.36
2019-05-19T09:23:23.273Z,27.40
2019-05-19T09:24:29.999Z,26.75
2019-05-19T09:25:17.241Z,26.34
2019-05-19T09:26:14.327Z,26.75
2019-05-19T09:27:11.314Z,27.29
2019-05-19T09:28:08.423Z,27.63
2019-05-19T09:29:05.308Z,27.34
2019-05-19T09:30:02.418Z,27.27
2019-05-19T09:30:59.418Z,27.53
2019-05-19T09:31:56.381Z,28.02
2019-05-19T09:32:53.412Z,28.29
2019-05-19T09:33:50.385Z,28.02
2019-05-19T09:34:47.678Z,28.07
2019-05-19T09:35:44.449Z,28.22
2019-05-19T09:36:41.447Z,28.37
2019-05-19T09:37:38.382Z,27.98
2019-05-19T09:38:35.463Z,27.79
2019-05-19T09:39:32.505Z,27.80
2019-05-19T09:40:29.490Z,27.76
2019-05-19T09:41:26.453Z,27.84
2019-05-19T09:42:23.510Z,28.12
2019-05-19T09:43:20.543Z,28.32
2019-05-19T09:44:17.440Z,28.43
2019-05-19T09:45:14.547Z,28.54
2019-05-19T09:46:13.935Z,28.65
2019-05-19T09:47:08.538Z,28.57
2019-05-19T09:48:05.530Z,28.31
2019-05-19T09:49:02.563Z,28.32
2019-05-19T09:49:59.615Z,28.27
2019-05-19T09:50:56.599Z,28.10
2019-05-19T09:51:53.623Z,27.94
2019-05-19T09:52:50.573Z,27.78
2019-05-19T09:53:47.654Z,27.47
2019-05-19T09:54:45.806Z,27.28
2019-05-19T09:55:41.675Z,26.96
2019-05-19T09:56:38.739Z,26.77
2019-05-19T09:57:36.036Z,26.73
2019-05-19T09:58:32.601Z,26.81
2019-05-19T09:59:29.688Z,26.88
2019-05-19T10:00:26.782Z,26.65
2019-05-19T10:01:23.710Z,26.25
2019-05-19T10:02:20.655Z,25.97
2019-05-19T10:03:19.671Z,25.88
2019-05-19T10:04:14.757Z,25.79
2019-05-19T10:05:11.998Z,25.73
2019-05-19T10:06:08.694Z,25.79
2019-05-19T10:07:06.335Z,25.94
2019-05-19T10:08:02.770Z,26.04
2019-05-19T10:08:59.843Z,25.98
2019-05-19T10:09:56.739Z,25.72
2019-05-19T10:10:53.772Z,25.29
2019-05-19T10:11:50.899Z,24.93
2019-05-19T10:12:47.983Z,24.77
2019-05-19T10:13:44.793Z,24.84
2019-05-19T10:14:41.820Z,24.76
2019-05-19T10:15:38.898Z,24.62
2019-05-19T10:16:36.019Z,24.52
2019-05-19T10:17:32.926Z,24.76
2019-05-19T10:18:29.908Z,24.93
2019-05-19T10:19:26.947Z,25.05
2019-05-19T10:20:24.081Z,24.75
2019-05-19T10:21:20.879Z,24.84
2019-05-19T10:22:18.004Z,25.15
2019-05-19T10:23:15.053Z,25.54
2019-05-19T10:24:12.033Z,25.68
2019-05-19T10:25:20.892Z,25.93
2019-05-19T10:26:06.002Z,26.00
2019-05-19T10:27:03.143Z,26.07
2019-05-19T10:28:00.134Z,26.09
2019-05-19T10:28:56.973Z,26.13
2019-05-19T10:29:54.015Z,26.05
2019-05-19T10:30:51.199Z,25.95
2019-05-19T10:31:48.175Z,26.00
2019-05-19T10:32:45.020Z,26.20
2019-05-19T10:33:42.214Z,26.12
2019-05-19T10:34:39.094Z,25.87
2019-05-19T10:35:36.133Z,25.87
2019-05-19T10:36:33.174Z,26.04
2019-05-19T10:37:30.407Z,26.20
2019-05-19T10:38:27.275Z,26.32
2019-05-19T10:39:24.224Z,26.44
2019-05-19T10:40:21.161Z,26.54
2019-05-19T10:41:18.257Z,26.62
2019-05-19T10:42:15.313Z,26.71
2019-05-19T10:43:12.214Z,26.71
2019-05-19T10:44:09.163Z,26.72
2019-05-19T10:45:06.194Z,26.63
2019-05-19T10:46:03.232Z,26.50
2019-05-19T10:47:01.088Z,26.45
2019-05-19T10:47:57.180Z,26.46
2019-05-19T10:48:54.265Z,26.37
2019-05-19T10:49:51.287Z,26.20
2019-05-19T10:50:48.226Z,26.07
2019-05-19T10:51:45.346Z,25.67
2019-05-19T10:52:42.297Z,25.28
2019-05-19T10:53:39.355Z,25.03
2019-05-19T10:54:36.263Z,25.12
2019-05-19T10:55:36.706Z,25.30
2019-05-19T10:56:30.383Z,25.37
2019-05-19T10:57:27.420Z,25.51
2019-05-19T10:58:24.411Z,25.54
2019-05-19T10:59:21.395Z,25.55
2019-05-19T11:00:18.441Z,25.72
2019-05-19T11:01:15.466Z,25.90
2019-05-19T11:02:12.464Z,26.14
2019-05-19T11:03:09.394Z,26.38
2019-05-19T11:04:06.459Z,26.61
2019-05-19T11:05:03.514Z,26.52
2019-05-19T11:06:00.451Z,26.44
2019-05-19T11:06:57.449Z,26.26
2019-05-19T11:07:54.624Z,26.06
2019-05-19T11:08:51.442Z,25.76
2019-05-19T11:09:48.459Z,25.56
2019-05-19T11:10:45.604Z,25.60
2019-05-19T11:11:42.575Z,25.62
2019-05-19T11:12:39.616Z,25.54
2019-05-19T11:13:36.604Z,25.37
2019-05-19T11:14:33.584Z,25.38
2019-05-19T11:15:30.625Z,25.53
2019-05-19T11:16:27.521Z,25.37
2019-05-19T11:17:24.555Z,25.54
2019-05-19T11:18:21.680Z,25.77
2019-05-19T11:19:18.719Z,25.85
2019-05-19T11:20:15.667Z,25.68
2019-05-19T11:21:12.650Z,25.35
2019-05-19T11:22:09.737Z,25.30
2019-05-19T11:23:06.612Z,25.67
2019-05-19T11:24:03.709Z,26.06
2019-05-19T11:25:00.652Z,26.10
2019-05-19T11:25:57.729Z,26.11
2019-05-19T11:26:54.727Z,26.18
2019-05-19T11:27:51.681Z,26.42
2019-05-19T11:28:48.736Z,26.72
2019-05-19T11:29:45.821Z,26.87
2019-05-19T11:30:42.807Z,27.03
2019-05-19T11:31:39.747Z,27.01
2019-05-19T11:32:36.744Z,26.62
2019-05-19T11:33:34.134Z,26.44
2019-05-19T11:34:30.727Z,26.39
2019-05-19T11:35:27.792Z,26.38
2019-05-19T11:36:24.833Z,26.04
2019-05-19T11:37:21.838Z,25.84
2019-05-19T11:38:18.856Z,25.87
2019-05-19T11:39:15.895Z,26.04
2019-05-19T11:40:12.879Z,26.25
2019-05-19T11:41:09.916Z,26.38
2019-05-19T11:42:06.815Z,26.54
2019-05-19T11:43:03.894Z,26.39
2019-05-19T11:44:00.973Z,26.01
2019-05-19T11:44:58.011Z,25.71
2019-05-19T11:45:54.898Z,25.76
2019-05-19T11:46:51.936Z,26.01
2019-05-19T11:47:48.972Z,26.17
2019-05-19T11:48:45.877Z,26.20
2019-05-19T11:49:43.005Z,26.20
2019-05-19T11:50:41.985Z,26.04
2019-05-19T11:51:37.044Z,25.84
2019-05-19T11:52:33.918Z,25.67
2019-05-19T11:53:31.042Z,25.60
2019-05-19T11:54:28.009Z,25.46
2019-05-19T11:55:25.032Z,25.11
2019-05-19T11:56:21.965Z,24.75
2019-05-19T11:57:19.040Z,24.48
2019-05-19T11:58:16.044Z,24.30
2019-05-19T11:59:13.161Z,24.02
2019-05-19T12:00:10.100Z,23.69
2019-05-19T12:01:07.092Z,23.32
2019-05-19T12:02:04.125Z,23.09
2019-05-19T12:03:01.030Z,23.06
2019-05-19T12:03:58.164Z,23.04
2019-05-19T12:04:55.193Z,23.04
2019-05-19T12:05:52.134Z,23.03
2019-05-19T12:06:49.110Z,23.07
2019-05-19T12:07:46.147Z,23.01
2019-05-19T12:08:43.147Z,23.00
2019-05-19T12:09:40.202Z,22.98
2019-05-19T12:10:37.117Z,22.97
2019-05-19T12:11:34.195Z,22.94
2019-05-19T12:12:31.235Z,22.84
2019-05-19T12:13:28.214Z,22.75
2019-05-19T12:14:25.207Z,22.75